createdAt,value
2023-01-08T00:00:57.789Z,100151.84
2023-01-08T00:03:24.892Z,100139.19
2023-01-08T00:05:51.496Z,100141.28
2023-01-08T00:08:17.866Z,100140.88
2023-01-08T00:10:44.218Z,100127.41
2023-01-08T00:13:10.734Z,100118.53
2023-01-08T00:15:37.067Z,100117.81
2023-01-08T00:18:05.862Z,100115.97
2023-01-08T00:20:33.089Z,100108.69
2023-01-08T00:22:59.432Z,100106.25
2023-01-08T00:25:25.796Z,100107.47
2023-01-08T00:27:52.153Z,100108.78
2023-01-08T00:30:18.486Z,100108.44
2023-01-08T00:32:44.833Z,100103.59
2023-01-08T00:35:11.203Z,100103.81
2023-01-08T00:37:37.544Z,100102.00
2023-01-08T00:40:04.373Z,100092.03
2023-01-08T00:42:30.714Z,100094.69
2023-01-08T00:44:57.041Z,100094.47
2023-01-08T00:47:23.378Z,100108.69
2023-01-08T00:49:49.723Z,100097.38
2023-01-08T00:52:16.067Z,100106.13
2023-01-08T00:54:42.400Z,100108.69
2023-01-08T00:57:08.755Z,100097.38
2023-01-08T00:59:35.093Z,100102.59
2023-01-08T01:02:01.586Z,100092.28
2023-01-08T01:04:28.229Z,100077.81
2023-01-08T01:06:54.690Z,100079.63
2023-01-08T01:09:21.052Z,100084.13
2023-01-08T01:11:47.393Z,100071.88
2023-01-08T01:14:13.737Z,100084.97
2023-01-08T01:16:41.536Z,100080.22
2023-01-08T01:19:08.112Z,100074.03
2023-01-08T01:21:34.620Z,100074.88
2023-01-08T01:24:04.876Z,100082.53
2023-01-08T01:26:31.883Z,100082.06
2023-01-08T01:28:59.210Z,100090.09
2023-01-08T01:31:27.642Z,100092.75
2023-01-08T01:33:54.184Z,100070.50
2023-01-08T01:36:25.204Z,100066.50
2023-01-08T01:38:53.832Z,100083.03
2023-01-08T01:41:29.810Z,100085.72
2023-01-08T01:43:59.110Z,100085.25
2023-01-08T01:46:39.479Z,100080.47
2023-01-08T01:49:17.883Z,100080.47
2023-01-08T01:51:55.682Z,100076.97
2023-01-08T01:54:22.720Z,100078.66
2023-01-08T01:56:49.698Z,100083.78
2023-01-08T01:59:16.434Z,100086.19
2023-01-08T02:01:43.588Z,100078.28
2023-01-08T02:04:12.450Z,100082.06
2023-01-08T02:06:45.035Z,100083.03
2023-01-08T02:09:19.488Z,100081.47
2023-01-08T02:12:13.961Z,100072.81
2023-01-08T02:15:05.275Z,100074.16
2023-01-08T02:17:53.026Z,100062.75
2023-01-08T02:20:40.092Z,100057.13
2023-01-08T02:23:23.106Z,100069.78
2023-01-08T02:26:13.316Z,100071.00
2023-01-08T02:28:44.781Z,100052.25
2023-01-08T02:31:13.009Z,100061.59
2023-01-08T02:33:39.565Z,100055.81
2023-01-08T02:36:27.816Z,100046.31
2023-01-08T02:39:02.438Z,100031.84
2023-01-08T02:41:39.520Z,100041.19
2023-01-08T02:44:09.630Z,100032.22
2023-01-08T02:46:39.438Z,100029.41
2023-01-08T02:49:10.179Z,100024.91
2023-01-08T02:51:45.363Z,100015.91
2023-01-08T02:54:17.544Z,100010.94
2023-01-08T02:56:49.293Z,99997.44
2023-01-08T02:59:16.773Z,100001.31
2023-01-08T03:01:45.554Z,100002.06
2023-01-08T03:04:23.592Z,99993.69
2023-01-08T03:06:50.487Z,99991.63
2023-01-08T03:09:17.545Z,99982.59
2023-01-08T03:11:55.737Z,99984.91
2023-01-08T03:14:28.231Z,99983.81
2023-01-08T03:17:13.121Z,99982.13
2023-01-08T03:19:47.181Z,99976.06
2023-01-08T03:22:16.333Z,99971.81
2023-01-08T03:24:46.727Z,99974.38
2023-01-08T03:27:18.399Z,99976.91
2023-01-08T03:29:48.986Z,99969.97
2023-01-08T03:32:18.397Z,99970.81
2023-01-08T03:34:47.856Z,99969.97
2023-01-08T03:37:17.783Z,99971.19
2023-01-08T03:39:51.681Z,99978.00
2023-01-08T03:42:20.307Z,99963.06
2023-01-08T03:44:47.063Z,99961.47
2023-01-08T03:47:15.045Z,99966.72
2023-01-08T03:49:43.964Z,99960.16
2023-01-08T03:52:25.128Z,99966.97
2023-01-08T03:54:51.854Z,99966.25
2023-01-08T03:57:18.270Z,99961.84
2023-01-08T03:59:44.710Z,99963.56
2023-01-08T04:02:11.338Z,99959.19
2023-01-08T04:04:38.358Z,99950.19
2023-01-08T04:07:05.045Z,99936.94
2023-01-08T04:09:31.395Z,99944.22
2023-01-08T04:11:57.721Z,99945.34
2023-01-08T04:14:24.066Z,99940.56
2023-01-08T04:16:50.439Z,99942.53
2023-01-08T04:19:16.852Z,99945.34
2023-01-08T04:21:43.203Z,99951.16
2023-01-08T04:24:11.636Z,99951.91
2023-01-08T04:26:38.466Z,99953.63
2023-01-08T04:29:05.188Z,99941.19
2023-01-08T04:31:31.833Z,99942.91
2023-01-08T04:33:58.246Z,99944.13
2023-01-08T04:36:24.601Z,99937.56
2023-01-08T04:38:50.933Z,99937.06
2023-01-08T04:41:18.408Z,99934.75
2023-01-08T04:43:44.957Z,99938.16
2023-01-08T04:46:11.325Z,99929.75
2023-01-08T04:48:37.978Z,99929.66
2023-01-08T04:51:05.102Z,99920.06
2023-01-08T04:53:34.857Z,99922.09
2023-01-08T04:56:05.543Z,99909.19
2023-01-08T04:58:33.145Z,99925.50
2023-01-08T05:00:59.504Z,99917.00
2023-01-08T05:03:26.107Z,99901.44
2023-01-08T05:05:52.568Z,99906.44
2023-01-08T05:08:18.895Z,99906.44
2023-01-08T05:10:45.230Z,99907.63
2023-01-08T05:13:11.623Z,99899.50
2023-01-08T05:15:38.024Z,99913.59
2023-01-08T05:18:05.877Z,99910.66
2023-01-08T05:20:33.409Z,99905.31
2023-01-08T05:22:59.827Z,99912.88
2023-01-08T05:25:26.133Z,99911.31
2023-01-08T05:27:52.828Z,99910.84
2023-01-08T05:30:19.444Z,99908.00
2023-01-08T05:32:45.788Z,99918.09
2023-01-08T05:35:12.197Z,99905.44
2023-01-08T05:37:39.105Z,99901.53
2023-01-08T05:40:06.047Z,99895.72
2023-01-08T05:42:34.312Z,99893.91
2023-01-08T05:45:01.206Z,99891.47
2023-01-08T05:47:31.827Z,99890.66
2023-01-08T05:49:58.205Z,99889.78
2023-01-08T05:52:25.217Z,99892.69
2023-01-08T05:54:51.592Z,99891.00
2023-01-08T05:57:17.919Z,99890.28
2023-01-08T05:59:44.298Z,99889.91
2023-01-08T06:02:10.736Z,99885.19
2023-01-08T06:04:37.094Z,99893.22
2023-01-08T06:07:03.482Z,99900.25
2023-01-08T06:09:29.821Z,99901.25
2023-01-08T06:11:58.034Z,99902.56
2023-01-08T06:14:24.640Z,99899.66
2023-01-08T06:16:51.075Z,99898.78
2023-01-08T06:19:18.933Z,99899.66
2023-01-08T06:21:45.468Z,99891.75
2023-01-08T06:24:11.789Z,99894.31
2023-01-08T06:26:38.200Z,99903.28
2023-01-08T06:29:04.555Z,99888.25
2023-01-08T06:31:30.926Z,99892.88
2023-01-08T06:33:57.304Z,99903.66
2023-01-08T06:36:23.629Z,99896.72
2023-01-08T06:38:50.028Z,99903.03
2023-01-08T06:41:17.333Z,99891.66
2023-01-08T06:43:43.654Z,99900.25
2023-01-08T06:46:10.531Z,99896.84
2023-01-08T06:48:37.452Z,99904.50
2023-01-08T06:51:04.730Z,99892.22
2023-01-08T06:53:31.426Z,99906.91
2023-01-08T06:55:58.687Z,99932.56
2023-01-08T06:58:28.197Z,99937.59
2023-01-08T07:00:54.647Z,99952.38
2023-01-08T07:03:21.073Z,99948.06
2023-01-08T07:05:49.890Z,99957.75
2023-01-08T07:08:17.852Z,99957.13
2023-01-08T07:10:45.432Z,99957.13
2023-01-08T07:13:12.707Z,99962.56
2023-01-08T07:15:40.877Z,99951.44
2023-01-08T07:18:12.028Z,99963.31
2023-01-08T07:20:39.056Z,99961.22
2023-01-08T07:23:09.104Z,99953.56
2023-01-08T07:25:35.506Z,99958.78
2023-01-08T07:28:02.008Z,99959.56
2023-01-08T07:30:30.402Z,99969.00
2023-01-08T07:33:03.434Z,99963.28
2023-01-08T07:35:30.118Z,99967.72
2023-01-08T07:37:56.682Z,99963.63
2023-01-08T07:40:23.176Z,99964.56
2023-01-08T07:42:58.177Z,99973.53
2023-01-08T07:45:24.594Z,99975.78
2023-01-08T07:47:50.910Z,99973.59
2023-01-08T07:50:17.270Z,99984.00
2023-01-08T07:52:43.607Z,99981.13
2023-01-08T07:55:09.964Z,99970.03
2023-01-08T07:57:36.284Z,99974.38
2023-01-08T08:00:02.657Z,99972.28
2023-01-08T08:02:33.711Z,99981.97
2023-01-08T08:05:00.178Z,99969.28
2023-01-08T08:07:26.505Z,99973.91
2023-01-08T08:09:52.837Z,99969.44
2023-01-08T08:12:19.156Z,99963.25
2023-01-08T08:14:45.475Z,99958.75
2023-01-08T08:17:11.823Z,99946.72
2023-01-08T08:19:38.184Z,99951.84
2023-01-08T08:22:04.508Z,99946.53
2023-01-08T08:24:30.844Z,99960.41
2023-01-08T08:26:57.199Z,99959.75
2023-01-08T08:29:23.526Z,99947.72
2023-01-08T08:31:49.967Z,99950.28
2023-01-08T08:34:16.312Z,99951.34
2023-01-08T08:36:42.649Z,99955.63
2023-01-08T08:39:09.278Z,99949.56
2023-01-08T08:41:35.868Z,99950.41
2023-01-08T08:44:02.243Z,99951.38
2023-01-08T08:46:29.449Z,99949.56
2023-01-08T08:48:55.837Z,99944.78
2023-01-08T08:51:22.554Z,99952.69
2023-01-08T08:53:48.878Z,99950.63
2023-01-08T08:56:15.209Z,99941.34
2023-01-08T08:58:41.890Z,99943.91
2023-01-08T09:01:08.563Z,99946.47
2023-01-08T09:03:35.216Z,99936.44
2023-01-08T09:06:01.718Z,99930.53
2023-01-08T09:08:28.297Z,99928.63
2023-01-08T09:10:56.764Z,99927.13
2023-01-08T09:13:23.157Z,99922.94
2023-01-08T09:15:49.601Z,99926.84
2023-01-08T09:18:19.083Z,99921.06
2023-01-08T09:20:45.456Z,99922.81
2023-01-08T09:23:11.846Z,99930.13
2023-01-08T09:25:38.206Z,99920.81
2023-01-08T09:28:07.202Z,99918.44
2023-01-08T09:30:34.151Z,99917.63
2023-01-08T09:33:03.306Z,99914.84
2023-01-08T09:35:31.081Z,99925.81
2023-01-08T09:37:57.697Z,99918.78
2023-01-08T09:40:54.822Z,99915.28
2023-01-08T09:43:24.478Z,99909.81
2023-01-08T09:45:54.995Z,99908.16
2023-01-08T09:48:25.672Z,99913.88
2023-01-08T09:50:52.076Z,99910.59
2023-01-08T09:53:18.976Z,99906.84
2023-01-08T09:56:09.682Z,99904.69
2023-01-08T09:58:50.413Z,99914.25
2023-01-08T10:01:20.110Z,99908.69
2023-01-08T10:03:50.514Z,99902.84
2023-01-08T10:06:17.643Z,99901.16
2023-01-08T10:11:16.287Z,99906.38
2023-01-08T10:13:48.161Z,99907.94
2023-01-08T10:16:26.837Z,99890.66
2023-01-08T10:18:53.222Z,99887.16
2023-01-08T10:21:19.639Z,99887.66
2023-01-08T10:23:53.040Z,99878.66
2023-01-08T10:26:37.552Z,99871.75
2023-01-08T10:29:18.725Z,99868.81
2023-01-08T10:31:49.888Z,99862.47
2023-01-08T10:34:25.938Z,99865.97
2023-01-08T10:36:54.680Z,99853.78
2023-01-08T10:39:25.397Z,99859.38
2023-01-08T10:41:55.318Z,99846.81
2023-01-08T10:44:24.254Z,99837.59
2023-01-08T10:46:55.963Z,99832.84
2023-01-08T10:49:43.487Z,99826.16
2023-01-08T10:52:33.091Z,99819.66
2023-01-08T10:55:24.865Z,99819.19
2023-01-08T10:58:00.437Z,99812.88
2023-01-08T11:00:37.257Z,99811.44
2023-01-08T11:03:40.357Z,99806.06
2023-01-08T11:06:18.937Z,99795.56
2023-01-08T11:08:51.741Z,99796.56
2023-01-08T11:11:18.928Z,99787.88
2023-01-08T11:13:58.840Z,99785.06
2023-01-08T11:16:40.826Z,99786.78
2023-01-08T11:19:22.661Z,99782.31
2023-01-08T11:22:00.432Z,99782.91
2023-01-08T11:24:34.082Z,99776.84
2023-01-08T11:27:09.717Z,99771.44
2023-01-08T11:29:50.850Z,99763.81
2023-01-08T11:32:48.309Z,99764.47
2023-01-08T11:35:29.918Z,99752.75
2023-01-08T11:37:59.429Z,99756.28
2023-01-08T11:40:52.932Z,99745.88
2023-01-08T11:43:41.051Z,99742.88
2023-01-08T11:46:33.892Z,99738.53
2023-01-08T11:49:06.131Z,99739.06
2023-01-08T11:52:06.638Z,99725.50
2023-01-08T11:54:39.021Z,99721.78
2023-01-08T11:57:36.190Z,99716.97
2023-01-08T12:00:35.049Z,99709.22
2023-01-08T12:03:09.714Z,99708.38
2023-01-08T12:05:56.315Z,99705.69
2023-01-08T12:08:40.634Z,99699.63
2023-01-08T12:11:12.341Z,99695.13
2023-01-08T12:14:05.957Z,99688.63
2023-01-08T12:17:01.823Z,99679.38
2023-01-08T12:19:42.253Z,99679.66
2023-01-08T12:22:31.354Z,99678.81
2023-01-08T12:25:21.421Z,99664.44
2023-01-08T12:28:06.314Z,99669.38
2023-01-08T12:31:06.623Z,99663.44
2023-01-08T12:33:51.193Z,99730.97
2023-01-08T12:36:25.899Z,99759.41
2023-01-08T12:39:15.751Z,99744.34
2023-01-08T12:41:45.889Z,99741.38
2023-01-08T12:44:19.147Z,99730.31
2023-01-08T12:46:46.092Z,99730.22
2023-01-08T12:49:21.126Z,99710.78
2023-01-08T12:52:01.798Z,99703.41
2023-01-08T12:55:04.690Z,99698.53
2023-01-08T12:57:38.732Z,99700.34
2023-01-08T13:00:23.540Z,99696.25
2023-01-08T13:03:00.216Z,99690.22
2023-01-08T13:05:37.714Z,99692.91
2023-01-08T13:08:21.758Z,99685.63
2023-01-08T13:10:51.502Z,99682.50
2023-01-08T13:13:44.437Z,99684.31
2023-01-08T13:16:19.913Z,99682.25
2023-01-08T13:19:00.952Z,99676.78
2023-01-08T13:21:31.361Z,99673.31
2023-01-08T13:24:23.461Z,99673.63
2023-01-08T13:26:49.797Z,99670.38
2023-01-08T13:29:26.166Z,99671.59
2023-01-08T13:31:52.941Z,99663.59
2023-01-08T13:34:22.434Z,99656.78
2023-01-08T13:36:56.830Z,99649.38
2023-01-08T13:39:31.179Z,99650.69
2023-01-08T13:42:00.430Z,99644.97
2023-01-08T13:44:34.084Z,99636.06
2023-01-08T13:47:04.361Z,99633.03
2023-01-08T13:49:44.023Z,99637.03
2023-01-08T13:52:31.437Z,99633.00
2023-01-08T13:54:59.566Z,99629.59
2023-01-08T13:57:25.959Z,99623.63
2023-01-08T13:59:55.639Z,99615.28
2023-01-08T14:02:26.750Z,99612.63
2023-01-08T14:04:54.160Z,99610.69
2023-01-08T14:07:20.941Z,99612.94
2023-01-08T14:09:47.294Z,99617.44
2023-01-08T14:12:20.289Z,99603.84
2023-01-08T14:14:51.357Z,99616.41
2023-01-08T14:17:20.083Z,99613.84
2023-01-08T14:19:47.336Z,99605.72
2023-01-08T14:22:31.980Z,99606.75
2023-01-08T14:25:02.541Z,99596.00
2023-01-08T14:27:31.151Z,99600.38
2023-01-08T14:29:58.267Z,99599.00
2023-01-08T14:32:29.251Z,99593.56
2023-01-08T14:34:58.511Z,99587.94
2023-01-08T14:37:25.090Z,99595.94
2023-01-08T14:39:54.535Z,99590.88
2023-01-08T14:42:44.146Z,99588.41
2023-01-08T14:45:44.701Z,99578.44
2023-01-08T14:48:17.751Z,99572.38
2023-01-08T14:50:53.391Z,99577.44
2023-01-08T14:53:28.409Z,99576.09
2023-01-08T14:55:56.874Z,99572.97
2023-01-08T14:58:26.689Z,99568.59
2023-01-08T15:00:57.729Z,99567.88
2023-01-08T15:03:39.150Z,99572.75
2023-01-08T15:06:07.338Z,99562.59
2023-01-08T15:08:42.443Z,99564.56
2023-01-08T15:11:23.140Z,99560.75
2023-01-08T15:13:51.437Z,99569.59
2023-01-08T15:16:30.931Z,99555.66
2023-01-08T15:19:12.731Z,99564.56
2023-01-08T15:21:45.241Z,99555.59
2023-01-08T15:24:23.155Z,99558.38
2023-01-08T15:26:49.613Z,99560.78
2023-01-08T15:29:33.937Z,99554.53
2023-01-08T15:32:22.117Z,99555.25
2023-01-08T15:34:49.000Z,99563.97
2023-01-08T15:37:16.144Z,99557.91
2023-01-08T15:39:43.012Z,99546.88
2023-01-08T15:42:37.412Z,99544.22
2023-01-08T15:45:06.202Z,99544.22
2023-01-08T15:47:32.536Z,99544.22
2023-01-08T15:49:58.914Z,99545.44
2023-01-08T15:52:31.039Z,99546.06
2023-01-08T15:54:58.501Z,99533.72
2023-01-08T15:57:25.173Z,99539.06
2023-01-08T15:59:51.714Z,99534.19
2023-01-08T16:02:18.675Z,99534.81
2023-01-08T16:04:45.067Z,99533.72
2023-01-08T16:07:11.454Z,99536.28
2023-01-08T16:09:37.813Z,99535.78
2023-01-08T16:12:05.330Z,99525.13
2023-01-08T16:14:34.092Z,99531.41
2023-01-08T16:17:01.367Z,99533.13
2023-01-08T16:19:29.878Z,99536.41
2023-01-08T16:21:56.527Z,99531.16
2023-01-08T16:24:22.835Z,99528.38
2023-01-08T16:26:49.174Z,99534.06
2023-01-08T16:29:15.578Z,99532.88
2023-01-08T16:31:46.857Z,99531.91
2023-01-08T16:34:14.349Z,99532.88
2023-01-08T16:36:40.793Z,99532.63
2023-01-08T16:39:07.558Z,99531.78
2023-01-08T16:41:33.886Z,99532.81
2023-01-08T16:44:00.205Z,99528.81
2023-01-08T16:46:26.775Z,99530.13
2023-01-08T16:48:53.108Z,99527.91
2023-01-08T16:51:21.065Z,99523.94
2023-01-08T16:53:47.719Z,99525.50
2023-01-08T16:56:14.039Z,99526.69
2023-01-08T16:58:40.363Z,99517.84
2023-01-08T17:01:09.362Z,99511.25
2023-01-08T17:03:35.977Z,99508.84
2023-01-08T17:06:09.111Z,99509.19
2023-01-08T17:08:39.826Z,99516.84
2023-01-08T17:11:11.457Z,99506.44
2023-01-08T17:13:38.359Z,99503.06
2023-01-08T17:16:06.718Z,99505.25
2023-01-08T17:18:33.295Z,99502.00
2023-01-08T17:20:59.788Z,99493.59
2023-01-08T17:23:29.381Z,99492.50
2023-01-08T17:25:57.239Z,99494.06
2023-01-08T17:28:28.430Z,99500.38
2023-01-08T17:31:02.102Z,99493.47
2023-01-08T17:33:28.455Z,99495.84
2023-01-08T17:35:54.783Z,99492.41
2023-01-08T17:38:21.108Z,99485.53
2023-01-08T17:40:47.426Z,99486.75
2023-01-08T17:43:13.758Z,99477.78
2023-01-08T17:45:40.132Z,99484.34
2023-01-08T17:48:06.716Z,99482.78
2023-01-08T17:50:33.621Z,99481.47
2023-01-08T17:53:00.113Z,99477.31
2023-01-08T17:55:26.975Z,99466.91
2023-01-08T17:57:53.314Z,99461.31
2023-01-08T18:00:20.232Z,99466.91
2023-01-08T18:02:46.635Z,99465.94
2023-01-08T18:05:13.016Z,99456.47
2023-01-08T18:07:39.416Z,99460.88
2023-01-08T18:10:06.376Z,99454.19
2023-01-08T18:12:32.883Z,99452.78
2023-01-08T18:14:59.304Z,99446.34
2023-01-08T18:17:25.711Z,99445.41
2023-01-08T18:19:52.161Z,99436.31
2023-01-08T18:22:20.418Z,99433.88
2023-01-08T18:24:47.095Z,99432.06
2023-01-08T18:27:13.430Z,99434.63
2023-01-08T18:29:39.865Z,99432.22
2023-01-08T18:32:08.351Z,99427.50
2023-01-08T18:34:34.742Z,99427.88
2023-01-08T18:37:01.113Z,99427.41
2023-01-08T18:39:29.430Z,99421.09
2023-01-08T18:42:14.239Z,99428.38
2023-01-08T18:44:40.556Z,99416.59
2023-01-08T18:47:06.897Z,99417.69
2023-01-08T18:49:33.217Z,99409.94
2023-01-08T18:51:59.754Z,99407.38
2023-01-08T18:54:26.139Z,99412.25
2023-01-08T18:56:52.461Z,99404.47
2023-01-08T18:59:18.831Z,99404.00
2023-01-08T19:01:45.354Z,99397.38
2023-01-08T19:04:16.538Z,99390.59
2023-01-08T19:06:42.864Z,99383.34
2023-01-08T19:09:09.361Z,99380.75
2023-01-08T19:11:36.142Z,99376.69
2023-01-08T19:14:02.566Z,99370.63
2023-01-08T19:16:28.941Z,99378.25
2023-01-08T19:18:56.527Z,99378.84
2023-01-08T19:21:22.990Z,99363.09
2023-01-08T19:23:49.625Z,99362.94
2023-01-08T19:26:16.649Z,99361.63
2023-01-08T19:28:43.631Z,99361.44
2023-01-08T19:31:16.002Z,99354.00
2023-01-08T19:33:43.695Z,99341.75
2023-01-08T19:36:15.608Z,99342.22
2023-01-08T19:38:43.240Z,99348.91
2023-01-08T19:41:30.165Z,99339.94
2023-01-08T19:43:57.387Z,99332.94
2023-01-08T19:46:24.175Z,99330.38
2023-01-08T19:48:50.823Z,99338.50
2023-01-08T19:51:17.281Z,99325.31
2023-01-08T19:53:43.798Z,99320.72
2023-01-08T19:56:13.944Z,99317.78
2023-01-08T19:58:40.883Z,99307.84
2023-01-08T20:01:12.858Z,99304.44
2023-01-08T20:03:39.846Z,99301.41
2023-01-08T20:06:12.389Z,99304.44
2023-01-08T20:08:38.992Z,99304.00
2023-01-08T20:11:10.606Z,99303.72
2023-01-08T20:13:37.941Z,99299.84
2023-01-08T20:16:06.320Z,99295.34
2023-01-08T20:18:33.855Z,99306.34
2023-01-08T20:21:05.208Z,99292.88
2023-01-08T20:23:31.741Z,99287.91
2023-01-08T20:26:03.798Z,99299.56
2023-01-08T20:28:30.193Z,99290.47
2023-01-08T20:30:56.598Z,99289.09
2023-01-08T20:33:22.990Z,99283.91
2023-01-08T20:35:52.271Z,99283.97
2023-01-08T20:38:18.710Z,99287.75
2023-01-08T20:40:45.048Z,99275.00
2023-01-08T20:43:11.382Z,99278.25
2023-01-08T20:45:40.312Z,99274.22
2023-01-08T20:48:06.961Z,99270.69
2023-01-08T20:50:33.293Z,99263.41
2023-01-08T20:52:59.679Z,99258.09
2023-01-08T20:55:26.110Z,99246.44
2023-01-08T20:57:52.443Z,99239.53
2023-01-08T21:00:19.401Z,99248.97
2023-01-08T21:02:46.275Z,99238.59
2023-01-08T21:05:12.647Z,99245.72
2023-01-08T21:07:38.971Z,99235.75
2023-01-08T21:10:05.868Z,99230.81
2023-01-08T21:12:32.386Z,99217.81
2023-01-08T21:14:58.720Z,99217.41
2023-01-08T21:17:25.088Z,99207.97
2023-01-08T21:19:51.419Z,99213.72
2023-01-08T21:22:17.812Z,99210.19
2023-01-08T21:24:44.145Z,99210.25
2023-01-08T21:27:10.528Z,99201.13
2023-01-08T21:29:36.837Z,99203.69
2023-01-08T21:32:03.877Z,99189.50
2023-01-08T21:34:30.223Z,99191.53
2023-01-08T21:36:56.915Z,99196.97
2023-01-08T21:39:24.700Z,99186.75
2023-01-08T21:42:09.674Z,99173.81
2023-01-08T21:44:54.463Z,99163.38
2023-01-08T21:47:20.861Z,99171.09
2023-01-08T21:49:47.423Z,99153.72
2023-01-08T21:52:32.954Z,99156.00
2023-01-08T21:54:59.506Z,99150.66
2023-01-08T21:57:27.751Z,99148.00
2023-01-08T21:59:54.667Z,99149.94
2023-01-08T22:02:23.188Z,99139.00
2023-01-08T22:04:49.802Z,99137.34
2023-01-08T22:07:16.658Z,99135.22
2023-01-08T22:09:42.983Z,99119.94
2023-01-08T22:12:09.653Z,99119.66
2023-01-08T22:14:36.169Z,99114.16
2023-01-08T22:17:03.932Z,99110.38
2023-01-08T22:19:30.341Z,99102.66
2023-01-08T22:21:56.750Z,99104.03
2023-01-08T22:24:23.057Z,99097.19
2023-01-08T22:26:50.191Z,99103.09
2023-01-08T22:29:16.936Z,99104.66
2023-01-08T22:31:43.394Z,99096.94
2023-01-08T22:34:14.012Z,99102.25
2023-01-08T22:36:40.339Z,99096.94
2023-01-08T22:39:06.697Z,99091.00
2023-01-08T22:41:33.054Z,99083.59
2023-01-08T22:43:59.407Z,99092.16
2023-01-08T22:46:25.779Z,99082.16
2023-01-08T22:48:52.301Z,99086.50
2023-01-08T22:51:27.868Z,99085.84
2023-01-08T22:53:55.280Z,99082.28
2023-01-08T22:56:21.662Z,99082.41
2023-01-08T22:58:48.062Z,99083.13
2023-01-08T23:01:17.184Z,99075.53
2023-01-08T23:03:44.567Z,99069.59
2023-01-08T23:06:16.473Z,99071.97
2023-01-08T23:08:43.924Z,99068.47
2023-01-08T23:11:12.210Z,99060.31
2023-01-08T23:13:39.289Z,99069.00
2023-01-08T23:16:08.171Z,99061.44
2023-01-08T23:18:36.096Z,99063.91
2023-01-08T23:21:11.395Z,99062.78
2023-01-08T23:23:37.977Z,99063.19
2023-01-08T23:26:06.218Z,99066.69
2023-01-08T23:28:32.601Z,99068.94
2023-01-08T23:30:59.500Z,99058.56
2023-01-08T23:33:26.399Z,99056.31
2023-01-08T23:35:53.019Z,99057.72
2023-01-08T23:38:19.403Z,99069.09
2023-01-08T23:40:46.529Z,99059.66
2023-01-08T23:43:12.907Z,99067.22
2023-01-08T23:45:39.497Z,99069.91
2023-01-08T23:48:06.460Z,99067.91
2023-01-08T23:50:33.113Z,99060.03
2023-01-08T23:52:59.476Z,99066.34
2023-01-08T23:55:25.963Z,99067.31
2023-01-08T23:57:52.526Z,99056.25
